createdAt,value
2023-03-27T00:00:44.509Z,3.9103
2023-03-27T00:01:46.600Z,3.8998
2023-03-27T00:02:48.813Z,3.9382
2023-03-27T00:04:52.999Z,3.9553
2023-03-27T00:05:55.038Z,3.9391
2023-03-27T00:06:57.078Z,3.9555
2023-03-27T00:07:59.239Z,3.9422
2023-03-27T00:09:01.248Z,4.0105
2023-03-27T00:10:03.415Z,4.0345
2023-03-27T00:11:05.529Z,4.0183
2023-03-27T00:12:07.629Z,4.0662
2023-03-27T00:13:09.644Z,4.1182
2023-03-27T00:14:11.696Z,4.1154
2023-03-27T00:15:13.696Z,4.0970
2023-03-27T00:16:15.857Z,4.0501
2023-03-27T00:17:17.956Z,4.0469
2023-03-27T00:18:19.982Z,4.0671
2023-03-27T00:19:22.455Z,4.0326
2023-03-27T00:20:24.818Z,4.0042
2023-03-27T00:21:26.835Z,4.0734
2023-03-27T00:22:28.878Z,4.1087
2023-03-27T00:23:30.920Z,4.0686
2023-03-27T00:24:32.925Z,4.0768
2023-03-27T00:25:35.003Z,4.0549
2023-03-27T00:26:37.088Z,4.0560
2023-03-27T00:27:39.133Z,4.0410
2023-03-27T00:28:41.192Z,4.0492
2023-03-27T00:29:43.254Z,4.0066
2023-03-27T00:30:45.284Z,3.9958
2023-03-27T00:32:49.260Z,4.0003
2023-03-27T00:33:51.285Z,3.9775
2023-03-27T00:34:53.345Z,3.9784
2023-03-27T00:35:55.357Z,3.9450
2023-03-27T00:36:57.417Z,3.9532
2023-03-27T00:37:59.408Z,3.9313
2023-03-27T00:39:01.477Z,3.9155
2023-03-27T00:41:05.435Z,3.9042
2023-03-27T00:42:07.444Z,3.8800
2023-03-27T00:43:09.500Z,3.8527
2023-03-27T00:44:11.552Z,3.8657
2023-03-27T00:45:13.591Z,3.8832
2023-03-27T00:46:15.700Z,3.8882
2023-03-27T00:47:17.895Z,3.8521
2023-03-27T00:48:19.880Z,3.8270
2023-03-27T00:50:23.853Z,3.8279
2023-03-27T00:52:27.825Z,3.8308
2023-03-27T00:53:29.915Z,3.8220
2023-03-27T00:54:31.929Z,3.8476
2023-03-27T00:55:34.022Z,3.8668
2023-03-27T00:56:36.070Z,3.8668
2023-03-27T00:57:38.102Z,3.8596
2023-03-27T00:58:40.131Z,3.8724
2023-03-27T00:59:42.207Z,3.8645
2023-03-27T01:00:44.232Z,3.8720
2023-03-27T01:01:46.335Z,3.8893
2023-03-27T01:02:48.451Z,3.8891
2023-03-27T01:03:50.642Z,3.8861
2023-03-27T01:04:52.714Z,3.9073
2023-03-27T01:05:54.771Z,3.9153
2023-03-27T01:08:01.267Z,3.9052
2023-03-27T01:08:59.405Z,3.9247
2023-03-27T01:10:01.416Z,3.9643
2023-03-27T01:12:05.412Z,3.9973
2023-03-27T01:14:09.328Z,4.0257
2023-03-27T01:15:11.402Z,4.0452
2023-03-27T01:16:13.522Z,4.0564
2023-03-27T01:18:17.502Z,4.0530
2023-03-27T01:19:19.491Z,4.0562
2023-03-27T01:20:21.570Z,4.0747
2023-03-27T01:21:23.600Z,4.0881
2023-03-27T01:22:25.707Z,4.1312
2023-03-27T01:23:35.887Z,4.1339
2023-03-27T01:24:31.289Z,4.1429
2023-03-27T01:25:33.408Z,4.1573
2023-03-27T01:26:37.020Z,4.1753
2023-03-27T01:27:39.309Z,4.2037
2023-03-27T01:28:41.390Z,4.2062
2023-03-27T01:29:43.404Z,4.2092
2023-03-27T01:30:45.494Z,4.2334
2023-03-27T01:31:47.553Z,4.2140
2023-03-27T01:32:49.609Z,4.2317
2023-03-27T01:33:51.716Z,4.2378
2023-03-27T01:35:01.574Z,4.2428
2023-03-27T01:35:57.394Z,4.2478
2023-03-27T01:36:59.487Z,4.2460
2023-03-27T01:38:01.617Z,4.2716
2023-03-27T01:39:03.687Z,4.2664
2023-03-27T01:40:05.752Z,4.3067
2023-03-27T01:41:07.840Z,4.3317
2023-03-27T01:42:09.921Z,4.3130
2023-03-27T01:43:12.017Z,4.2861
2023-03-27T01:44:14.123Z,4.3097
2023-03-27T01:45:16.144Z,4.3120
2023-03-27T01:46:18.261Z,4.3086
2023-03-27T01:47:20.298Z,4.2992
2023-03-27T01:48:22.398Z,4.3637
2023-03-27T01:50:26.390Z,4.3114
2023-03-27T01:51:28.557Z,4.3128
2023-03-27T01:52:30.593Z,4.3139
2023-03-27T01:53:32.639Z,4.3217
2023-03-27T01:54:34.810Z,4.3448
2023-03-27T01:55:36.911Z,4.3681
2023-03-27T01:56:39.022Z,4.3650
2023-03-27T01:57:49.249Z,4.3343
2023-03-27T01:58:44.633Z,4.3370
2023-03-27T01:59:46.726Z,4.3502
2023-03-27T02:01:50.719Z,4.3647
2023-03-27T02:02:52.834Z,4.3944
2023-03-27T02:03:54.882Z,4.3866
2023-03-27T02:04:57.012Z,4.3862
2023-03-27T02:05:59.102Z,4.3851
2023-03-27T02:07:01.144Z,4.4259
2023-03-27T02:08:03.257Z,4.4270
2023-03-27T02:09:05.318Z,4.4333
2023-03-27T02:10:07.436Z,4.4219
2023-03-27T02:11:09.525Z,4.4131
2023-03-27T02:12:11.631Z,4.4635
2023-03-27T02:13:13.642Z,4.4228
2023-03-27T02:14:15.750Z,4.4280
2023-03-27T02:15:23.339Z,4.4392
2023-03-27T02:16:21.522Z,4.4767
2023-03-27T02:17:23.852Z,4.4959
2023-03-27T02:18:25.927Z,4.4707
2023-03-27T02:19:28.059Z,4.4512
2023-03-27T02:20:30.089Z,4.4440
2023-03-27T02:21:32.194Z,4.4636
2023-03-27T02:22:37.426Z,4.4318
2023-03-27T02:23:35.873Z,4.4637
2023-03-27T02:25:39.954Z,4.4516
2023-03-27T02:26:41.989Z,4.4789
2023-03-27T02:27:44.153Z,4.4547
2023-03-27T02:28:46.243Z,4.4669
2023-03-27T02:29:48.366Z,4.4665
2023-03-27T02:31:05.771Z,4.5006
2023-03-27T02:31:54.018Z,4.4911
2023-03-27T02:32:56.068Z,4.4951
2023-03-27T02:33:58.154Z,4.4911
2023-03-27T02:35:00.251Z,4.4837
2023-03-27T02:36:02.311Z,4.5006
2023-03-27T02:37:04.418Z,4.5209
2023-03-27T02:38:06.446Z,4.4957
2023-03-27T02:39:08.596Z,4.5012
2023-03-27T02:40:10.709Z,4.4921
2023-03-27T02:41:12.808Z,4.4715
2023-03-27T02:42:14.922Z,4.4829
2023-03-27T02:43:16.970Z,4.4797
2023-03-27T02:45:20.970Z,4.5190
2023-03-27T02:47:24.992Z,4.5071
2023-03-27T02:48:27.074Z,4.5289
2023-03-27T02:49:29.194Z,4.5275
2023-03-27T02:50:31.310Z,4.4829
2023-03-27T02:51:33.386Z,4.4764
2023-03-27T02:52:35.496Z,4.4930
2023-03-27T02:53:37.546Z,4.5027
2023-03-27T02:54:39.656Z,4.5226
2023-03-27T02:55:41.759Z,4.4928
2023-03-27T02:56:43.880Z,4.4696
2023-03-27T02:57:51.807Z,4.4799
2023-03-27T02:58:49.588Z,4.4635
2023-03-27T02:59:51.665Z,4.4574
2023-03-27T03:00:53.783Z,4.4976
2023-03-27T03:01:55.995Z,4.5016
2023-03-27T03:02:58.098Z,4.4909
2023-03-27T03:04:00.289Z,4.4934
2023-03-27T03:05:02.456Z,4.4625
2023-03-27T03:06:04.489Z,4.4820
2023-03-27T03:07:06.601Z,4.4913
2023-03-27T03:08:08.668Z,4.5119
2023-03-27T03:09:10.792Z,4.5157
2023-03-27T03:10:12.822Z,4.5159
2023-03-27T03:11:15.097Z,4.5439
2023-03-27T03:12:17.144Z,4.5377
2023-03-27T03:13:19.270Z,4.5369
2023-03-27T03:14:21.370Z,4.4957
2023-03-27T03:15:23.507Z,4.4821
2023-03-27T03:16:25.609Z,4.4909
2023-03-27T03:17:27.661Z,4.5201
2023-03-27T03:18:29.721Z,4.4997
2023-03-27T03:19:31.830Z,4.5399
2023-03-27T03:20:33.892Z,4.5407
2023-03-27T03:21:35.969Z,4.5350
2023-03-27T03:22:38.045Z,4.5060
2023-03-27T03:23:40.094Z,4.5178
2023-03-27T03:25:44.190Z,4.4978
2023-03-27T03:26:46.211Z,4.5119
2023-03-27T03:27:48.521Z,4.5043
2023-03-27T03:29:00.367Z,4.5235
2023-03-27T03:29:54.157Z,4.4958
2023-03-27T03:30:56.668Z,4.4747
2023-03-27T03:31:59.166Z,4.4799
2023-03-27T03:33:01.515Z,4.5312
2023-03-27T03:34:03.641Z,4.4961
2023-03-27T03:35:05.782Z,4.4871
2023-03-27T03:36:07.943Z,4.5010
2023-03-27T03:38:11.968Z,4.5270
2023-03-27T03:40:15.973Z,4.5010
2023-03-27T03:41:18.089Z,4.5121
2023-03-27T03:42:22.312Z,4.4982
2023-03-27T03:43:20.772Z,4.4691
2023-03-27T03:44:22.887Z,4.4999
2023-03-27T03:45:24.953Z,4.4984
2023-03-27T03:46:27.194Z,4.5172
2023-03-27T03:47:29.238Z,4.5087
2023-03-27T03:48:31.370Z,4.5491
2023-03-27T03:49:33.526Z,4.5350
2023-03-27T03:50:35.558Z,4.5289
2023-03-27T03:51:37.666Z,4.4909
2023-03-27T03:52:39.711Z,4.4543
2023-03-27T03:54:44.966Z,4.4453
2023-03-27T03:55:44.455Z,4.4159
2023-03-27T03:56:46.636Z,4.4389
2023-03-27T03:57:48.809Z,4.4665
2023-03-27T03:58:50.954Z,4.4259
2023-03-27T03:59:52.982Z,4.4356
2023-03-27T04:00:55.310Z,4.4659
2023-03-27T04:01:57.573Z,4.4451
2023-03-27T04:02:59.863Z,4.4291
2023-03-27T04:04:01.911Z,4.4141
2023-03-27T04:05:08.697Z,4.3980
2023-03-27T04:06:07.599Z,4.4179
2023-03-27T04:07:09.731Z,4.4532
2023-03-27T04:08:11.762Z,4.4514
2023-03-27T04:09:13.879Z,4.4249
2023-03-27T04:10:16.022Z,4.3931
2023-03-27T04:15:25.797Z,4.3641
2023-03-27T04:16:27.994Z,4.3215
2023-03-27T04:17:30.191Z,4.3477
2023-03-27T04:18:32.405Z,4.3479
2023-03-27T04:19:34.813Z,4.3297
2023-03-27T04:20:36.935Z,4.3542
2023-03-27T04:21:39.030Z,4.4064
2023-03-27T04:22:41.085Z,4.4133
2023-03-27T04:23:43.194Z,4.4186
2023-03-27T04:24:45.313Z,4.4053
2023-03-27T04:25:47.395Z,4.3971
2023-03-27T04:26:49.512Z,4.4081
2023-03-27T04:27:51.612Z,4.3696
2023-03-27T04:29:55.661Z,4.2744
2023-03-27T04:30:57.986Z,4.2636
2023-03-27T04:32:00.669Z,4.3307
2023-03-27T04:33:02.850Z,4.2824
2023-03-27T04:34:04.355Z,4.3715
2023-03-27T04:35:06.462Z,4.3360
2023-03-27T04:36:08.743Z,4.2813
2023-03-27T04:37:10.891Z,4.2424
2023-03-27T04:38:12.952Z,4.1886
2023-03-27T04:39:15.130Z,4.2687
2023-03-27T04:40:17.253Z,4.2502
2023-03-27T04:41:19.355Z,4.2748
2023-03-27T04:42:21.442Z,4.3271
2023-03-27T04:43:23.542Z,4.3542
2023-03-27T04:44:25.676Z,4.3509
2023-03-27T04:45:27.733Z,4.3610
2023-03-27T04:46:29.937Z,4.3322
2023-03-27T04:47:32.028Z,4.3063
2023-03-27T04:48:34.222Z,4.3339
2023-03-27T04:49:36.390Z,4.3034
2023-03-27T04:50:38.437Z,4.3400
2023-03-27T04:51:40.534Z,4.3494
2023-03-27T04:52:42.601Z,4.3360
2023-03-27T04:54:46.882Z,4.3278
2023-03-27T04:55:48.992Z,4.3662
2023-03-27T04:56:51.122Z,4.3530
2023-03-27T04:57:53.240Z,4.3229
2023-03-27T04:58:55.318Z,4.3166
2023-03-27T04:59:57.400Z,4.2857
2023-03-27T05:00:59.767Z,4.2630
2023-03-27T05:03:04.773Z,4.2103
2023-03-27T05:05:09.265Z,4.1781
2023-03-27T05:06:11.492Z,4.1793
2023-03-27T05:07:13.902Z,4.2153
2023-03-27T05:08:16.147Z,4.2144
2023-03-27T05:09:18.302Z,4.2004
2023-03-27T05:10:21.690Z,4.1943
2023-03-27T05:11:24.325Z,4.2355
2023-03-27T05:12:26.603Z,4.2115
2023-03-27T05:13:29.049Z,4.1739
2023-03-27T05:14:31.246Z,4.1846
2023-03-27T05:15:33.441Z,4.0518
2023-03-27T05:16:35.907Z,4.0471
2023-03-27T05:17:38.198Z,4.0358
2023-03-27T05:18:41.817Z,3.9935
2023-03-27T05:19:44.332Z,4.0412
2023-03-27T05:20:46.731Z,4.0311
2023-03-27T05:21:49.256Z,4.0562
2023-03-27T05:22:51.505Z,4.1445
2023-03-27T05:23:53.794Z,4.1205
2023-03-27T05:24:56.095Z,4.1493
2023-03-27T05:26:00.676Z,4.1745
2023-03-27T05:26:58.760Z,4.1721
2023-03-27T05:28:00.949Z,4.1613
2023-03-27T05:29:03.119Z,4.1835
2023-03-27T05:30:05.279Z,4.1674
2023-03-27T05:31:07.525Z,4.1936
2023-03-27T05:32:10.243Z,4.1966
2023-03-27T05:33:12.387Z,4.1789
2023-03-27T05:35:16.592Z,4.1766
2023-03-27T05:36:18.905Z,4.1526
2023-03-27T05:37:20.978Z,4.1402
2023-03-27T05:38:23.093Z,4.1392
2023-03-27T05:39:25.260Z,4.0681
2023-03-27T05:40:27.502Z,4.0452
2023-03-27T05:41:29.823Z,3.9633
2023-03-27T05:42:31.934Z,3.9725
2023-03-27T05:45:38.019Z,3.8941
2023-03-27T05:46:40.183Z,3.8338
2023-03-27T05:47:42.301Z,3.8859
2023-03-27T05:48:44.386Z,3.9794
2023-03-27T05:49:46.496Z,3.8891
2023-03-27T05:50:48.694Z,3.7945
2023-03-27T05:51:50.751Z,3.8872
2023-03-27T05:52:52.831Z,3.9323
2023-03-27T05:53:55.017Z,3.8851
2023-03-27T05:54:57.089Z,3.9281
2023-03-27T05:56:02.841Z,3.9664
2023-03-27T05:57:00.947Z,3.9632
2023-03-27T05:58:03.066Z,3.8972
2023-03-27T05:59:05.112Z,3.8680
2023-03-27T06:00:07.219Z,3.9155
2023-03-27T06:01:09.307Z,3.9555
2023-03-27T06:02:11.423Z,4.0200
2023-03-27T06:03:13.704Z,3.9534
2023-03-27T06:04:16.068Z,4.0288
2023-03-27T06:05:18.163Z,3.9633
2023-03-27T06:06:20.321Z,3.9973
2023-03-27T06:07:22.599Z,3.9864
2023-03-27T06:08:24.919Z,3.9963
2023-03-27T06:09:26.988Z,4.1026
2023-03-27T06:10:29.119Z,4.1012
2023-03-27T06:11:31.208Z,4.1386
2023-03-27T06:12:33.426Z,4.0503
2023-03-27T06:13:35.532Z,4.1026
2023-03-27T06:14:37.637Z,4.0812
2023-03-27T06:15:39.778Z,4.0789
2023-03-27T06:16:41.885Z,4.0181
2023-03-27T06:17:44.182Z,4.0692
2023-03-27T06:18:46.176Z,4.1493
2023-03-27T06:19:48.288Z,4.0377
2023-03-27T06:20:50.376Z,4.0763
2023-03-27T06:21:52.494Z,4.0965
2023-03-27T06:23:56.498Z,4.2453
2023-03-27T06:24:58.565Z,4.3198
2023-03-27T06:26:00.680Z,4.3690
2023-03-27T06:27:02.725Z,4.3587
2023-03-27T06:28:04.923Z,4.3839
2023-03-27T06:29:08.176Z,4.4362
2023-03-27T06:30:10.981Z,4.4232
2023-03-27T06:31:13.090Z,4.3671
2023-03-27T06:32:15.183Z,4.3387
2023-03-27T06:33:17.413Z,4.3679
2023-03-27T06:34:19.506Z,4.3908
2023-03-27T06:35:21.609Z,4.4102
2023-03-27T06:37:25.627Z,4.4989
2023-03-27T06:38:27.722Z,4.4434
2023-03-27T06:39:29.791Z,4.4272
2023-03-27T06:40:31.801Z,4.3872
2023-03-27T06:41:33.861Z,4.3334
2023-03-27T06:42:35.983Z,4.3063
2023-03-27T06:43:38.076Z,4.3347
2023-03-27T06:45:42.091Z,4.3542
2023-03-27T06:46:45.958Z,4.4200
2023-03-27T06:47:54.338Z,4.5190
2023-03-27T06:49:53.803Z,4.3395
2023-03-27T06:50:56.221Z,4.4596
2023-03-27T06:51:58.506Z,4.3465
2023-03-27T06:53:00.712Z,4.2985
2023-03-27T06:54:02.805Z,4.3038
2023-03-27T06:55:04.914Z,4.3763
2023-03-27T06:56:06.980Z,4.4020
2023-03-27T06:57:09.120Z,4.4289
2023-03-27T06:58:11.152Z,4.5167
2023-03-27T07:00:15.254Z,4.4413
2023-03-27T07:01:17.301Z,4.4867
2023-03-27T07:02:19.433Z,4.5209
2023-03-27T07:03:21.550Z,4.4675
2023-03-27T07:04:23.662Z,4.4190
2023-03-27T07:05:25.741Z,4.3822
2023-03-27T07:06:27.855Z,4.2992
2023-03-27T07:07:29.925Z,4.2519
2023-03-27T07:09:33.965Z,4.2836
2023-03-27T07:10:36.031Z,4.3593
2023-03-27T07:11:38.138Z,4.3889
2023-03-27T07:12:40.214Z,4.2674
2023-03-27T07:13:42.332Z,4.2372
2023-03-27T07:14:44.498Z,4.2527
2023-03-27T07:15:46.558Z,4.3666
2023-03-27T07:16:48.689Z,4.2496
2023-03-27T07:17:50.799Z,4.2029
2023-03-27T07:18:52.930Z,4.2195
2023-03-27T07:19:54.978Z,4.3198
2023-03-27T07:20:57.240Z,4.2309
2023-03-27T07:21:59.474Z,4.1604
2023-03-27T07:23:01.610Z,4.1142
2023-03-27T07:24:03.933Z,4.1415
2023-03-27T07:25:06.288Z,4.0499
2023-03-27T07:26:08.555Z,4.1836
2023-03-27T07:27:10.862Z,4.2956
2023-03-27T07:28:13.113Z,4.2826
2023-03-27T07:29:15.455Z,4.1976
2023-03-27T07:30:17.712Z,4.2548
2023-03-27T07:31:35.151Z,4.2895
2023-03-27T07:32:36.246Z,4.3450
2023-03-27T07:34:29.757Z,4.1352
2023-03-27T07:35:32.134Z,4.0810
2023-03-27T07:36:34.426Z,4.0099
2023-03-27T07:37:38.012Z,4.1707
2023-03-27T07:38:40.617Z,4.3256
2023-03-27T07:39:42.879Z,4.0970
2023-03-27T07:40:45.195Z,4.0560
2023-03-27T07:41:47.479Z,4.2681
2023-03-27T07:42:49.752Z,4.1953
2023-03-27T07:43:52.080Z,4.1266
2023-03-27T07:44:54.335Z,4.2170
2023-03-27T07:45:56.829Z,4.4127
2023-03-27T07:49:04.458Z,4.3078
2023-03-27T07:51:13.723Z,4.4926
2023-03-27T07:52:13.771Z,4.7515
2023-03-27T07:53:33.632Z,4.6763
2023-03-27T07:54:17.039Z,4.7034
2023-03-27T07:55:19.351Z,5.0908
2023-03-27T07:56:21.633Z,4.9384
2023-03-27T07:57:23.898Z,4.7215
2023-03-27T07:58:26.416Z,4.6973
2023-03-27T07:59:28.952Z,4.7076
2023-03-27T08:00:31.382Z,4.4347
2023-03-27T08:01:33.864Z,4.5266
2023-03-27T08:02:36.222Z,4.3547
2023-03-27T08:03:38.525Z,4.5777
2023-03-27T08:05:43.025Z,4.2315
2023-03-27T08:06:45.303Z,4.3215
2023-03-27T08:08:49.751Z,4.2899
2023-03-27T08:09:52.008Z,4.4806
2023-03-27T08:10:54.341Z,4.4020
2023-03-27T08:11:56.707Z,4.4371
2023-03-27T08:12:58.974Z,4.5033
2023-03-27T08:14:01.290Z,5.3193
2023-03-27T08:15:03.576Z,4.9931
2023-03-27T08:16:05.887Z,5.2110
2023-03-27T08:17:15.746Z,5.2255
2023-03-27T08:18:12.073Z,4.9602
2023-03-27T08:19:14.380Z,4.8110
2023-03-27T08:20:16.733Z,4.4427
2023-03-27T08:21:19.051Z,4.2380
2023-03-27T08:22:21.270Z,4.0620
2023-03-27T08:23:23.557Z,4.1865
2023-03-27T08:24:25.827Z,4.2027
2023-03-27T08:25:28.104Z,4.0702
2023-03-27T08:26:30.473Z,4.0177
2023-03-27T08:27:32.769Z,4.1337
2023-03-27T08:28:34.974Z,4.1156
2023-03-27T08:29:37.264Z,4.2025
2023-03-27T08:30:39.581Z,4.1655
2023-03-27T08:31:41.856Z,4.0297
2023-03-27T08:32:44.223Z,3.8630
2023-03-27T08:33:46.566Z,3.8922
2023-03-27T08:34:48.865Z,3.8529
2023-03-27T08:35:51.215Z,4.0009
2023-03-27T08:36:53.630Z,3.9059
2023-03-27T08:37:55.944Z,3.8148
2023-03-27T08:41:02.567Z,3.8764
2023-03-27T08:42:04.913Z,3.8731
2023-03-27T08:43:07.222Z,3.9422
2023-03-27T08:44:09.475Z,3.9130
2023-03-27T08:45:11.754Z,3.8771
2023-03-27T08:50:22.603Z,3.9876
2023-03-27T08:51:24.865Z,4.0913
2023-03-27T08:52:27.172Z,3.9597
2023-03-27T08:53:29.585Z,3.9902
2023-03-27T08:54:31.898Z,3.7634
2023-03-27T08:55:34.230Z,3.7856
2023-03-27T08:56:36.559Z,3.9546
2023-03-27T08:57:38.899Z,4.0209
2023-03-27T08:58:41.241Z,3.9868
2023-03-27T08:59:43.473Z,4.0036
2023-03-27T09:00:45.775Z,4.0078
2023-03-27T09:01:48.077Z,4.1201
2023-03-27T09:02:50.432Z,4.0307
2023-03-27T09:03:52.842Z,4.1796
2023-03-27T09:04:55.126Z,4.2945
2023-03-27T09:06:59.578Z,3.9235
2023-03-27T09:08:01.950Z,4.0778
2023-03-27T09:09:04.203Z,4.2245
2023-03-27T09:11:08.692Z,4.4909
2023-03-27T09:13:13.139Z,4.0711
2023-03-27T09:14:15.501Z,4.1510
2023-03-27T09:15:17.805Z,3.9937
2023-03-27T09:16:20.151Z,3.8342
2023-03-27T09:17:22.383Z,3.8790
2023-03-27T09:18:24.664Z,3.6027
2023-03-27T09:19:26.978Z,3.7383
2023-03-27T09:20:29.272Z,3.6503
2023-03-27T09:21:31.563Z,3.6765
2023-03-27T09:22:33.895Z,3.6252
2023-03-27T09:23:36.156Z,3.7194
2023-03-27T09:24:38.420Z,3.7936
2023-03-27T09:25:40.761Z,3.8802
2023-03-27T09:26:43.063Z,3.9897
2023-03-27T09:27:45.289Z,3.9426
2023-03-27T09:28:48.981Z,4.2523
2023-03-27T09:29:51.330Z,4.0379
2023-03-27T09:30:55.125Z,4.2889
2023-03-27T09:31:57.367Z,4.0352
2023-03-27T09:32:59.731Z,3.9290
2023-03-27T09:34:02.561Z,3.8146
2023-03-27T09:35:04.911Z,3.8481
2023-03-27T09:36:07.219Z,4.0229
2023-03-27T09:37:09.512Z,4.0085
2023-03-27T09:38:11.778Z,3.8006
2023-03-27T09:39:14.111Z,3.7488
2023-03-27T09:40:16.487Z,3.8680
2023-03-27T09:41:18.795Z,3.9101
2023-03-27T09:42:21.068Z,4.1018
2023-03-27T09:43:24.542Z,4.4348
2023-03-27T09:44:27.156Z,4.3208
2023-03-27T09:45:29.478Z,4.3652
2023-03-27T09:46:31.843Z,4.4869
2023-03-27T09:47:34.144Z,4.9372
2023-03-27T09:48:36.409Z,4.8295
2023-03-27T09:49:38.736Z,4.1661
2023-03-27T09:50:41.028Z,4.0217
2023-03-27T09:51:43.383Z,4.4797
2023-03-27T09:52:45.659Z,4.7118
2023-03-27T09:53:47.946Z,4.9821
2023-03-27T09:54:50.264Z,5.2201
2023-03-27T09:55:52.591Z,5.5638
2023-03-27T09:56:54.855Z,6.4923
2023-03-27T09:57:57.193Z,7.1237
2023-03-27T09:58:59.475Z,6.5793
2023-03-27T10:00:01.754Z,6.7386
2023-03-27T10:01:04.043Z,6.0691
2023-03-27T10:03:08.672Z,6.2207
2023-03-27T10:04:10.972Z,6.4445
2023-03-27T10:05:13.256Z,7.2974
2023-03-27T10:06:15.538Z,6.8330
2023-03-27T10:07:17.859Z,5.8083
2023-03-27T10:08:20.109Z,5.7374
2023-03-27T10:09:22.403Z,5.8480
2023-03-27T10:10:24.644Z,5.4034
2023-03-27T10:11:26.937Z,5.2596
2023-03-27T10:12:29.201Z,4.8140
2023-03-27T10:13:31.501Z,5.0681
2023-03-27T10:14:33.740Z,5.2371
2023-03-27T10:15:35.995Z,4.6784
2023-03-27T10:16:38.332Z,4.9525
2023-03-27T10:18:42.757Z,5.5703
2023-03-27T10:19:44.983Z,5.2600
2023-03-27T10:20:47.319Z,5.0898
2023-03-27T10:21:49.638Z,5.4953
2023-03-27T10:22:53.352Z,5.7279
2023-03-27T10:23:52.660Z,6.6121
2023-03-27T10:24:54.912Z,7.4784
2023-03-27T10:25:57.209Z,6.9917
2023-03-27T10:26:59.449Z,6.6514
2023-03-27T10:28:01.730Z,5.2911
2023-03-27T10:29:04.004Z,5.2886
2023-03-27T10:31:08.397Z,5.6277
2023-03-27T10:32:10.708Z,5.3099
2023-03-27T10:33:13.005Z,5.2253
2023-03-27T10:34:15.271Z,5.2081
2023-03-27T10:35:17.570Z,5.5219
2023-03-27T10:37:21.954Z,6.0389
2023-03-27T10:38:24.294Z,5.5684
2023-03-27T10:39:26.525Z,5.3361
2023-03-27T10:40:28.768Z,5.4204
2023-03-27T10:41:31.072Z,5.4767
2023-03-27T10:42:33.407Z,5.7660
2023-03-27T10:43:35.668Z,6.2583
2023-03-27T10:44:37.949Z,6.0458
2023-03-27T10:46:42.333Z,6.0853
2023-03-27T10:47:44.638Z,5.9066
2023-03-27T10:48:46.916Z,5.6277
2023-03-27T10:50:51.277Z,6.1952
2023-03-27T10:51:53.518Z,6.3237
2023-03-27T10:52:55.816Z,6.1913
2023-03-27T10:53:58.196Z,5.9686
2023-03-27T10:55:00.486Z,6.3373
2023-03-27T10:56:02.848Z,6.4332
2023-03-27T10:57:05.135Z,6.4080
2023-03-27T10:58:07.452Z,6.0990
2023-03-27T10:59:09.696Z,5.9691
2023-03-27T11:01:14.086Z,5.7139
2023-03-27T11:02:16.413Z,6.0723
2023-03-27T11:03:18.719Z,5.4496
2023-03-27T11:04:21.075Z,5.6847
2023-03-27T11:05:23.312Z,5.7313
2023-03-27T11:07:27.793Z,5.8236
2023-03-27T11:08:30.054Z,5.9340
2023-03-27T11:09:32.347Z,6.6434
2023-03-27T11:10:34.670Z,6.3527
2023-03-27T11:11:36.928Z,6.1784
2023-03-27T11:12:39.221Z,6.6739
2023-03-27T11:13:41.517Z,6.1955
2023-03-27T11:14:43.740Z,6.6529
2023-03-27T11:15:46.067Z,5.8152
2023-03-27T11:16:48.352Z,5.7572
2023-03-27T11:17:50.987Z,6.0742
2023-03-27T11:18:53.268Z,5.6243
2023-03-27T11:19:55.594Z,6.1442
2023-03-27T11:20:57.922Z,6.5583
2023-03-27T11:22:00.267Z,6.8881
2023-03-27T11:23:02.548Z,6.3575
2023-03-27T11:24:04.810Z,6.5221
2023-03-27T11:25:07.123Z,6.4317
2023-03-27T11:26:09.392Z,6.2556
2023-03-27T11:27:13.302Z,5.8854
2023-03-27T11:28:12.513Z,5.9836
2023-03-27T11:29:14.737Z,6.0101
2023-03-27T11:30:16.998Z,5.6571
2023-03-27T11:31:19.336Z,5.9035
2023-03-27T11:32:21.630Z,5.7410
2023-03-27T11:33:23.896Z,5.9545
2023-03-27T11:34:29.136Z,5.9295
2023-03-27T11:35:27.377Z,6.1058
2023-03-27T11:36:29.682Z,6.2190
2023-03-27T11:37:31.968Z,6.3235
2023-03-27T11:38:34.188Z,5.9966
2023-03-27T11:39:36.530Z,6.8627
2023-03-27T11:40:38.750Z,7.0159
2023-03-27T11:41:41.028Z,7.2045
2023-03-27T11:42:43.282Z,5.8331
2023-03-27T11:45:49.837Z,5.8038
2023-03-27T11:46:52.122Z,6.1723
2023-03-27T11:49:58.680Z,6.6554
2023-03-27T11:51:00.982Z,6.2438
2023-03-27T11:52:03.219Z,5.4808
2023-03-27T11:53:05.489Z,5.4236
2023-03-27T11:54:07.802Z,5.7240
2023-03-27T11:55:10.125Z,5.7912
2023-03-27T11:56:12.387Z,5.6357
2023-03-27T11:57:14.706Z,5.9218
2023-03-27T11:58:16.941Z,5.9981
2023-03-27T11:59:19.194Z,5.9478
2023-03-27T12:00:21.498Z,6.1713
2023-03-27T12:01:23.752Z,5.9592
2023-03-27T12:02:26.081Z,5.7933
2023-03-27T12:03:28.523Z,6.2688
2023-03-27T12:04:30.871Z,6.1032
2023-03-27T12:05:33.147Z,6.6833
2023-03-27T12:06:35.387Z,6.4189
2023-03-27T12:07:40.426Z,6.8086
2023-03-27T12:08:41.949Z,6.2678
2023-03-27T12:09:44.898Z,6.2757
2023-03-27T12:10:47.152Z,6.3691
2023-03-27T12:11:49.474Z,6.6167
2023-03-27T12:12:51.753Z,6.5057
2023-03-27T12:14:00.955Z,6.4485
2023-03-27T12:14:57.700Z,6.3718
2023-03-27T12:15:59.994Z,6.5158
2023-03-27T12:17:02.382Z,6.5946
2023-03-27T12:18:04.630Z,6.7826
2023-03-27T12:19:17.366Z,6.6642
2023-03-27T12:20:10.622Z,6.4835
2023-03-27T12:23:18.747Z,5.6980
2023-03-27T12:24:20.998Z,5.6188
2023-03-27T12:26:25.487Z,5.9255
2023-03-27T12:27:27.795Z,5.8448
2023-03-27T12:28:30.046Z,5.8907
2023-03-27T12:29:32.353Z,5.7525
2023-03-27T12:30:34.666Z,5.6907
2023-03-27T12:33:42.796Z,5.8392
2023-03-27T12:34:45.038Z,5.7200
2023-03-27T12:35:47.452Z,5.5951
2023-03-27T12:36:49.723Z,5.4812
2023-03-27T12:37:52.080Z,5.6121
2023-03-27T12:38:54.366Z,5.6386
2023-03-27T12:39:56.764Z,5.6914
2023-03-27T12:40:59.138Z,5.6193
2023-03-27T12:42:01.608Z,5.6474
2023-03-27T12:43:03.882Z,5.9228
2023-03-27T12:44:06.190Z,5.7799
2023-03-27T12:45:08.481Z,5.3744
2023-03-27T12:48:15.078Z,6.2024
2023-03-27T12:49:17.356Z,6.3220
2023-03-27T12:51:21.813Z,6.3655
2023-03-27T12:52:24.124Z,6.0506
2023-03-27T12:53:26.368Z,6.1307
2023-03-27T12:54:29.644Z,6.0220
2023-03-27T12:55:32.023Z,6.2289
2023-03-27T12:56:34.421Z,6.0216
2023-03-27T12:57:36.943Z,5.8713
2023-03-27T12:58:39.364Z,5.9575
2023-03-27T12:59:41.661Z,5.9174
2023-03-27T13:00:43.938Z,6.1059
2023-03-27T13:01:52.288Z,5.6588
2023-03-27T13:02:50.202Z,5.8268
2023-03-27T13:04:54.642Z,5.9182
2023-03-27T13:05:56.930Z,5.8932
2023-03-27T13:06:59.194Z,6.1090
2023-03-27T13:08:01.458Z,5.7679
2023-03-27T13:09:03.800Z,5.5152
2023-03-27T13:12:10.377Z,5.8253
2023-03-27T13:13:12.667Z,5.9766
2023-03-27T13:14:14.929Z,6.0533
2023-03-27T13:15:17.254Z,5.9911
2023-03-27T13:16:19.632Z,5.9182
2023-03-27T13:20:28.376Z,6.0212
2023-03-27T13:21:30.712Z,5.8633
2023-03-27T13:22:37.090Z,5.8151
2023-03-27T13:23:35.277Z,6.0376
2023-03-27T13:24:37.581Z,6.2257
2023-03-27T13:25:39.854Z,6.4178
2023-03-27T13:26:42.133Z,6.2657
2023-03-27T13:27:44.479Z,6.1433
2023-03-27T13:28:47.022Z,6.1107
2023-03-27T13:29:49.288Z,5.9350
2023-03-27T13:30:51.602Z,6.1175
2023-03-27T13:31:53.918Z,5.9520
2023-03-27T13:32:56.160Z,6.5499
2023-03-27T13:33:58.465Z,7.1239
2023-03-27T13:35:00.825Z,7.8408
2023-03-27T13:36:03.128Z,10.4845
2023-03-27T13:37:06.634Z,9.9620
2023-03-27T13:38:09.680Z,9.9697
2023-03-27T13:39:11.952Z,9.5687
2023-03-27T13:40:14.218Z,9.0887
2023-03-27T13:42:18.547Z,9.6298
2023-03-27T13:43:20.795Z,10.1001
2023-03-27T13:44:23.094Z,9.8140
2023-03-27T13:45:25.336Z,8.5994
2023-03-27T13:46:27.583Z,10.1932
2023-03-27T13:47:29.819Z,9.2651
2023-03-27T13:48:31.992Z,8.7537
2023-03-27T13:49:34.188Z,9.7776
2023-03-27T13:50:36.391Z,9.4530
2023-03-27T13:51:38.646Z,10.5579
2023-03-27T13:52:40.886Z,9.9954
2023-03-27T13:53:43.090Z,8.8863
2023-03-27T13:54:45.326Z,6.6806
2023-03-27T13:55:47.465Z,6.5642
2023-03-27T13:56:49.801Z,6.6831
2023-03-27T13:58:54.265Z,6.3603
2023-03-27T13:59:56.493Z,5.9978
2023-03-27T14:00:58.922Z,5.9302
2023-03-27T14:02:01.303Z,5.9386
2023-03-27T14:03:03.598Z,5.7210
2023-03-27T14:04:06.007Z,5.7321
2023-03-27T14:05:08.340Z,5.7841
2023-03-27T14:06:10.619Z,5.9167
2023-03-27T14:08:14.954Z,6.0109
2023-03-27T14:09:17.265Z,6.5829
2023-03-27T14:12:23.810Z,7.2423
2023-03-27T14:13:26.130Z,7.1878
2023-03-27T14:14:28.417Z,6.2537
2023-03-27T14:15:30.813Z,6.4881
2023-03-27T14:16:33.092Z,6.3958
2023-03-27T14:17:35.349Z,6.1999
2023-03-27T14:18:37.665Z,6.2032
2023-03-27T14:19:39.918Z,6.0565
2023-03-27T14:20:42.315Z,5.9014